Airfield :







YOU CAN JOIN US ON...

 
LOGIN :

Register | Disclaimer

   EN    FR    IT 

 









Legend :    VFR   Marginal VFR   IFR   Intensive IFR   Very Intensive IFR
Visi :
Ceiling :
>= 8 km
>= 3000ft
5 to 8 km
1000 to 3000 ft
1500m to 5 km
500 to 1000 ft
800 to 1500m
200 to 500 ft
< 800m
< 200 ft
Symbols :   Thunderstorms  Fog  Heavy snow  Heavy precipitations  Wind > 20 kt






- Airport Elevation : 76 ft
- IATA code : PWM


KPWM - Portland International Jetport

CURRENT METAR :
  • 152351Z 23003KT 10SM CLR 09/04 A3008 RMK AO2 SLP185 T00890039 10161 20089 53008

EXPIRED METARs :
  • 152251Z 20003KT 10SM CLR 11/04 A3007 RMK AO2 SLP182 T01110039
  • 152151Z 19008KT 10SM FEW250 12/03 A3006 RMK AO2 SLP179 T01220033

TAF KPWM
Valid from the 16 at 00:00 until the 17 at 00:00 UTC


152320Z 1600/1624 20003KT P6SM SKC
FM161600 14008KT P6SM SCT250
FM162300 13010KT P6SM BKN025



MET'MAP, your aeronautical weather chart ! - Copyright ORBIFLY December 2007 - Disclaimer

ORBIFLY MET'MAP TEAM :

Programming & Development : Alexandra Zaïnal
Concept & Development : Baudouin d'Aumeries
Co-Development & Prog : Marc-Olivier Méhu
Technical & hardware support : Manuel Goepfert

Contact : metmap@orbifly.com




SOURCES & CREDITS :

   NOAA